This is the latest recevied weather packets stored in our database for station/object TA3MHA. If no packets are shown the sender has not sent any weather packets the latest 10 day(s).
| Time | Temp. | Humidity | Pressure | Rain* | Wind** | Luminosity | Snow |
|---|---|---|---|---|---|---|---|
| 1777071600 | 7.22° C | 67% | - | 0 mm | - | 0 W/m² | - |
| 1777071300 | 7.78° C | 66% | - | 0 mm | - | 0 W/m² | - |
| 1777071001 | 7.78° C | 66% | - | 0 mm | - | 0 W/m² | - |
| 1777070701 | 7.78° C | 65% | - | 0 mm | - | 0 W/m² | - |
| 1777070401 | 7.78° C | 64% | - | 0 mm | - | 0 W/m² | - |
| 1777070101 | 7.78° C | 65% | - | 0 mm | - | 0 W/m² | - |
| 1777069800 | 7.22° C | 66% | - | 0 mm | - | 0 W/m² | - |
| 1777069501 | 7.22° C | 67% | - | 0 mm | - | 0 W/m² | - |
| 1777069201 | 7.22° C | 67% | - | 0 mm | - | 0 W/m² | - |
| 1777068901 | 7.22° C | 67% | - | 0 mm | - | 0 W/m² | - |
| 1777068601 | 7.78° C | 66% | - | 0 mm | - | 0 W/m² | - |
| 1777068301 | 7.78° C | 65% | - | 0 mm | - | 0 W/m² | - |
| 1777068000 | 7.22° C | 68% | - | 0 mm | - | 0 W/m² | - |
| 1777067701 | 7.22° C | 68% | - | 0 mm | - | 0 W/m² | - |
| 1777067401 | 7.22° C | 67% | - | 0 mm | - | 0 W/m² | - |
| 1777067101 | 7.22° C | 67% | - | 0 mm | - | 0 W/m² | - |
| 1777066800 | 7.22° C | 66% | - | 0 mm | - | 0 W/m² | - |
| 1777066501 | 7.78° C | 64% | - | 0 mm | - | 0 W/m² | - |
| 1777066201 | 8.33° C | 61% | - | 0 mm | - | 0 W/m² | - |
| 1777065901 | 8.33° C | 60% | - | 0 mm | - | 0 W/m² | - |
| 1777065601 | 7.22° C | 66% | - | 0 mm | - | 0 W/m² | - |
| 1777065301 | 7.22° C | 66% | - | 0 mm | - | 0 W/m² | - |
| 1777065000 | 7.22° C | 66% | - | 0 mm | - | 0 W/m² | - |
| 1777064701 | 8.33° C | 64% | - | 0 mm | - | 0 W/m² | - |
| 1777064401 | 8.33° C | 64% | - | 0 mm | - | 0 W/m² | - |
* Rain latest hour (hover to see other rain measurements)
** Current wind speed in m/s (hover to see current wind gust speed)